Time;durP1;ratioP1;P1;durP2;ratioP2;P2;SDS_P1;SDS_P2;PMS_P1;PMS_P2;Temp;Humidity;BMP_temperature;BMP_pressure;BME280_temperature;BME280_humidity;BME280_pressure;Samples;Min_cycle;Max_cycle;Signal;HPM_P1;HPM_P2
2021/10/16 00:00:34;;;;;;;7.70;6.80;;;8.80;99.90;;;;;;6156685;28;20482;-62
2021/10/16 00:03:37;;;;;;;10.20;7.13;;;8.80;99.90;;;;;;6156101;28;21026;-62
2021/10/16 00:06:40;;;;;;;9.97;6.17;;;8.70;99.90;;;;;;6146293;28;20486;-62
2021/10/16 00:09:43;;;;;;;10.00;7.30;;;8.60;99.90;;;;;;6155370;28;20474;-62
2021/10/16 00:12:46;;;;;;;7.53;6.50;;;8.60;99.90;;;;;;6155513;28;20470;-63
2021/10/16 00:15:51;;;;;;;8.27;6.77;;;8.60;99.90;;;;;;6154807;28;20806;-63
2021/10/16 00:18:55;;;;;;;7.13;6.43;;;8.60;99.90;;;;;;6155195;28;20478;-63
2021/10/16 00:21:59;;;;;;;7.30;6.33;;;8.60;99.90;;;;;;6154802;28;20498;-63
2021/10/16 00:25:02;;;;;;;7.23;6.50;;;8.60;99.90;;;;;;6154601;28;20475;-63
2021/10/16 00:28:05;;;;;;;7.10;6.40;;;8.60;99.90;;;;;;6154527;28;20479;-63
2021/10/16 00:31:10;;;;;;;6.73;6.03;;;8.50;99.90;;;;;;6155063;28;21009;-64
2021/10/16 00:34:13;;;;;;;7.73;6.23;;;8.50;99.90;;;;;;6154378;28;20471;-63
2021/10/16 00:37:16;;;;;;;6.70;6.00;;;8.50;99.90;;;;;;6153883;28;20998;-63
2021/10/16 00:40:19;;;;;;;8.40;5.80;;;8.40;99.90;;;;;;6154263;28;20471;-63
2021/10/16 00:43:22;;;;;;;6.67;6.00;;;8.50;99.90;;;;;;6154511;28;20474;-63
2021/10/16 00:46:27;;;;;;;8.90;6.00;;;8.40;99.90;;;;;;6154393;28;20471;-63
2021/10/16 00:49:30;;;;;;;8.13;6.43;;;8.40;99.90;;;;;;6154482;28;20470;-63
2021/10/16 00:52:33;;;;;;;7.70;6.20;;;8.40;99.90;;;;;;6154168;28;20471;-63
2021/10/16 00:55:37;;;;;;;8.33;6.20;;;8.40;99.90;;;;;;6154144;28;20479;-63
2021/10/16 00:58:40;;;;;;;7.40;5.73;;;8.30;99.90;;;;;;6153931;28;20475;-63
2021/10/16 01:01:44;;;;;;;6.33;5.00;;;8.30;99.90;;;;;;6153111;28;20481;-63
2021/10/16 01:04:48;;;;;;;6.93;5.47;;;8.30;99.90;;;;;;6153962;28;21065;-63
2021/10/16 01:07:52;;;;;;;6.07;5.47;;;8.30;99.90;;;;;;6153703;28;20471;-63
2021/10/16 01:10:56;;;;;;;6.40;5.40;;;8.30;99.90;;;;;;6148965;28;20507;-63
2021/10/16 01:14:00;;;;;;;7.43;5.70;;;8.20;99.90;;;;;;6153216;28;20497;-63
2021/10/16 01:17:05;;;;;;;5.87;5.37;;;8.20;99.90;;;;;;6153899;28;20494;-63
2021/10/16 01:20:10;;;;;;;8.33;5.73;;;8.30;99.90;;;;;;6153780;28;20966;-63
2021/10/16 01:23:15;;;;;;;8.10;5.40;;;8.20;99.90;;;;;;6154022;28;20478;-63
2021/10/16 01:26:18;;;;;;;6.03;5.53;;;8.20;99.90;;;;;;6153337;28;20482;-63
2021/10/16 01:29:24;;;;;;;7.50;5.87;;;8.20;99.90;;;;;;6153509;28;20475;-63
2021/10/16 01:32:27;;;;;;;6.17;5.57;;;8.20;99.90;;;;;;6152795;28;20474;-63
2021/10/16 01:35:30;;;;;;;6.40;4.93;;;8.20;99.90;;;;;;6153213;28;20490;-63
2021/10/16 01:38:34;;;;;;;5.50;4.80;;;8.20;99.90;;;;;;6153780;28;20489;-63
2021/10/16 01:41:38;;;;;;;5.57;5.07;;;8.20;99.90;;;;;;6153537;28;20502;-63
2021/10/16 01:44:41;;;;;;;7.70;6.37;;;8.20;99.90;;;;;;6153951;28;20459;-63
2021/10/16 01:47:49;;;;;;;5.63;4.80;;;8.20;99.90;;;;;;6153391;28;20927;-63
2021/10/16 01:50:54;;;;;;;6.10;5.33;;;8.10;99.90;;;;;;6153506;28;20459;-63
2021/10/16 01:53:58;;;;;;;6.27;5.47;;;8.20;99.90;;;;;;6153204;28;20446;-63
2021/10/16 01:57:02;;;;;;;9.83;5.20;;;8.10;99.90;;;;;;6152630;28;20501;-63
2021/10/16 02:00:07;;;;;;;5.37;4.73;;;8.10;99.90;;;;;;6152592;28;20459;-63
2021/10/16 02:03:10;;;;;;;6.33;5.77;;;8.10;99.90;;;;;;6152629;28;20824;-64
2021/10/16 02:06:14;;;;;;;5.00;4.47;;;8.20;99.90;;;;;;6152344;28;20854;-64
2021/10/16 02:09:18;;;;;;;5.90;5.30;;;8.20;99.90;;;;;;6152559;28;21164;-64
2021/10/16 02:12:22;;;;;;;6.47;4.30;;;8.20;99.90;;;;;;6151005;28;20471;-64
2021/10/16 02:15:25;;;;;;;8.30;5.50;;;8.30;99.90;;;;;;6157277;28;20478;-63
2021/10/16 02:18:28;;;;;;;5.57;5.00;;;8.30;99.90;;;;;;6157414;28;20474;-63
2021/10/16 02:21:31;;;;;;;5.50;5.00;;;8.30;99.90;;;;;;6157238;28;20538;-63
2021/10/16 02:24:36;;;;;;;9.47;6.10;;;8.40;99.90;;;;;;6157399;28;20474;-63
2021/10/16 02:27:39;;;;;;;5.60;4.93;;;8.40;99.90;;;;;;6157398;28;20493;-63
2021/10/16 02:30:42;;;;;;;6.93;5.27;;;8.40;99.90;;;;;;6157359;28;20475;-64
2021/10/16 02:33:45;;;;;;;6.03;5.50;;;8.40;99.90;;;;;;6157541;28;20470;-63
2021/10/16 02:36:48;;;;;;;5.97;5.07;;;8.50;99.90;;;;;;6156685;28;20474;-64
2021/10/16 02:39:53;;;;;;;6.70;5.67;;;8.50;99.90;;;;;;6156678;28;20474;-64
2021/10/16 02:42:56;;;;;;;6.20;5.20;;;8.60;99.90;;;;;;6156907;28;20474;-64
2021/10/16 02:45:59;;;;;;;5.43;4.90;;;8.60;99.90;;;;;;6156642;28;20966;-64
2021/10/16 02:49:02;;;;;;;6.10;4.57;;;8.70;99.90;;;;;;6157473;28;20494;-64
2021/10/16 02:52:06;;;;;;;6.83;5.50;;;8.70;99.90;;;;;;6157444;28;20493;-64
2021/10/16 02:55:11;;;;;;;4.97;4.50;;;8.80;99.90;;;;;;6157212;28;20973;-64
2021/10/16 02:58:14;;;;;;;7.03;4.67;;;8.80;99.90;;;;;;6156757;28;20482;-64
2021/10/16 03:01:17;;;;;;;6.77;5.47;;;8.80;99.90;;;;;;6157817;28;20489;-64
2021/10/16 03:04:20;;;;;;;6.10;5.50;;;8.90;99.90;;;;;;6157027;28;20622;-63
2021/10/16 03:07:23;;;;;;;7.20;6.00;;;8.90;99.90;;;;;;6156589;28;20533;-63
2021/10/16 03:10:28;;;;;;;7.47;6.37;;;8.90;99.90;;;;;;6156621;28;20474;-63
2021/10/16 03:13:33;;;;;;;6.80;6.20;;;8.90;99.90;;;;;;6156686;28;20550;-64
2021/10/16 03:16:36;;;;;;;7.13;5.70;;;8.90;99.90;;;;;;6156244;28;20487;-63
2021/10/16 03:19:39;;;;;;;5.90;5.47;;;9.00;99.90;;;;;;6155949;28;20479;-64
2021/10/16 03:22:42;;;;;;;6.47;5.87;;;9.00;99.90;;;;;;6155477;28;20478;-64
2021/10/16 03:25:47;;;;;;;6.13;5.53;;;9.00;99.90;;;;;;6155856;28;20477;-64
2021/10/16 03:28:50;;;;;;;5.37;4.83;;;9.00;99.90;;;;;;6156605;28;20481;-64
2021/10/16 03:31:53;;;;;;;5.80;5.20;;;9.10;99.90;;;;;;6155972;28;20478;-64
2021/10/16 03:34:56;;;;;;;6.40;5.80;;;9.10;99.90;;;;;;6156351;28;20497;-64
2021/10/16 03:37:59;;;;;;;7.57;6.13;;;9.10;99.90;;;;;;6156363;28;20479;-64
2021/10/16 03:41:04;;;;;;;6.30;5.57;;;9.10;99.90;;;;;;6157004;28;20467;-64
2021/10/16 03:44:07;;;;;;;7.57;5.70;;;9.10;99.90;;;;;;6155613;28;20809;-63
2021/10/16 03:47:11;;;;;;;5.57;5.00;;;9.10;99.90;;;;;;6155928;28;20494;-63
2021/10/16 03:50:14;;;;;;;5.70;5.17;;;9.10;99.90;;;;;;6155123;28;20868;-64
2021/10/16 03:53:17;;;;;;;5.33;4.83;;;9.10;99.90;;;;;;6155378;28;20545;-63
2021/10/16 03:56:22;;;;;;;5.87;5.27;;;9.20;99.90;;;;;;6155264;28;20928;-63
2021/10/16 03:59:26;;;;;;;7.77;5.30;;;9.20;99.90;;;;;;6155397;28;20495;-63
2021/10/16 04:02:29;;;;;;;5.80;4.53;;;9.20;99.90;;;;;;6155061;28;20486;-63
2021/10/16 04:05:32;;;;;;;6.10;5.20;;;9.30;99.90;;;;;;6155091;28;20900;-63
2021/10/16 04:08:35;;;;;;;6.23;5.63;;;9.30;99.90;;;;;;6156431;28;20510;-63
2021/10/16 04:11:40;;;;;;;5.97;5.30;;;9.30;99.90;;;;;;6155944;28;20475;-63
2021/10/16 04:14:43;;;;;;;5.87;5.30;;;9.30;99.90;;;;;;6155242;28;20927;-63
2021/10/16 04:17:46;;;;;;;5.47;5.07;;;9.30;99.90;;;;;;6155188;28;20497;-64
2021/10/16 04:20:49;;;;;;;5.27;4.77;;;9.40;99.90;;;;;;6146341;28;20443;-63
2021/10/16 04:23:52;;;;;;;5.70;4.97;;;9.40;99.90;;;;;;6155599;28;20455;-64
2021/10/16 04:26:57;;;;;;;5.67;5.17;;;9.40;99.90;;;;;;6156555;28;20474;-63
2021/10/16 04:30:00;;;;;;;5.60;5.07;;;9.40;99.90;;;;;;6156136;28;20447;-63
2021/10/16 04:33:03;;;;;;;7.00;4.00;;;9.40;99.90;;;;;;6155429;28;20915;-63
2021/10/16 04:36:06;;;;;;;5.30;4.80;;;9.50;99.90;;;;;;6154118;28;20470;-64
2021/10/16 04:39:10;;;;;;;5.43;4.17;;;9.50;99.90;;;;;;6154601;28;20474;-63
2021/10/16 04:42:17;;;;;;;4.67;4.20;;;9.50;99.90;;;;;;6154424;28;20478;-63
2021/10/16 04:45:21;;;;;;;6.43;5.10;;;9.60;99.90;;;;;;6153933;28;20482;-63
2021/10/16 04:48:24;;;;;;;6.30;5.50;;;9.70;99.90;;;;;;6153288;28;20475;-64
2021/10/16 04:51:27;;;;;;;5.10;4.47;;;9.60;99.90;;;;;;6153246;28;20470;-64
2021/10/16 04:54:31;;;;;;;5.50;5.00;;;9.70;99.90;;;;;;6153450;28;20802;-64
2021/10/16 04:57:36;;;;;;;6.10;5.50;;;9.70;99.90;;;;;;6153113;28;20474;-63
2021/10/16 05:00:39;;;;;;;5.63;5.00;;;9.70;99.90;;;;;;6153810;28;20947;-64
2021/10/16 05:03:42;;;;;;;6.30;5.70;;;9.70;99.90;;;;;;6154205;28;20470;-64
2021/10/16 05:06:45;;;;;;;5.53;5.00;;;9.60;99.90;;;;;;6154071;28;20996;-63
2021/10/16 05:09:49;;;;;;;5.23;4.77;;;9.70;99.90;;;;;;6154350;28;20481;-63
2021/10/16 05:12:54;;;;;;;6.30;5.70;;;9.70;99.90;;;;;;6153946;28;20474;-62
2021/10/16 05:15:57;;;;;;;5.77;5.23;;;9.70;99.90;;;;;;6154423;28;20481;-64
2021/10/16 05:19:00;;;;;;;6.87;5.60;;;9.70;99.90;;;;;;6153483;28;21022;-63
2021/10/16 05:22:03;;;;;;;7.17;6.43;;;9.60;99.90;;;;;;6153837;28;20999;-63
2021/10/16 05:25:07;;;;;;;6.33;5.70;;;9.60;99.90;;;;;;6149345;28;20479;-63
2021/10/16 05:28:12;;;;;;;8.33;6.80;;;9.60;99.90;;;;;;6153439;28;20487;-62
2021/10/16 05:31:15;;;;;;;6.10;5.50;;;9.70;99.90;;;;;;6154268;28;20470;-62
2021/10/16 05:34:18;;;;;;;8.00;7.20;;;9.70;99.90;;;;;;6153949;28;20470;-62
2021/10/16 05:37:22;;;;;;;7.00;6.30;;;9.70;99.90;;;;;;6154433;28;20490;-63
2021/10/16 05:40:25;;;;;;;6.07;5.47;;;9.80;99.90;;;;;;6157707;28;20478;-65
2021/10/16 05:43:29;;;;;;;6.80;6.10;;;9.80;99.90;;;;;;6157113;28;20486;-64
2021/10/16 05:46:36;;;;;;;6.87;6.17;;;9.80;99.90;;;;;;6156585;28;20478;-64
2021/10/16 05:49:39;;;;;;;9.87;7.43;;;9.90;99.90;;;;;;6158894;28;20470;-64
2021/10/16 05:52:42;;;;;;;7.60;6.90;;;9.90;99.90;;;;;;6158605;28;20474;-64
2021/10/16 05:55:45;;;;;;;7.13;6.43;;;9.90;99.90;;;;;;6158153;28;20478;-64
2021/10/16 05:58:50;;;;;;;6.80;6.10;;;9.90;99.90;;;;;;6155662;28;20482;-64
2021/10/16 06:01:53;;;;;;;9.33;6.30;;;10.00;99.90;;;;;;6154711;28;20500;-64
2021/10/16 06:04:57;;;;;;;7.00;6.23;;;9.90;99.90;;;;;;6152741;28;20959;-64
2021/10/16 06:08:00;;;;;;;9.20;7.10;;;10.00;99.90;;;;;;6152777;28;20800;-63
2021/10/16 06:11:04;;;;;;;7.90;7.10;;;10.00;99.90;;;;;;6153185;28;20474;-64
2021/10/16 06:14:08;;;;;;;7.13;6.50;;;10.10;99.90;;;;;;6152834;28;20485;-64
2021/10/16 06:17:11;;;;;;;7.47;6.70;;;10.10;99.90;;;;;;6152655;28;20479;-64
2021/10/16 06:20:14;;;;;;;7.80;7.10;;;10.10;99.90;;;;;;6153132;28;20486;-64
2021/10/16 06:23:18;;;;;;;8.40;7.40;;;10.00;99.90;;;;;;6152983;28;20494;-65
2021/10/16 06:26:21;;;;;;;11.00;8.63;;;10.00;99.90;;;;;;6152604;28;20799;-64
2021/10/16 06:29:26;;;;;;;9.40;8.30;;;10.00;99.90;;;;;;6152849;28;20845;-63
2021/10/16 06:32:29;;;;;;;10.93;8.13;;;10.00;99.90;;;;;;6153297;28;20513;-65
2021/10/16 06:35:32;;;;;;;13.07;7.97;;;9.90;99.90;;;;;;6152342;28;21035;-65
2021/10/16 06:38:38;;;;;;;12.03;8.90;;;9.80;99.90;;;;;;6152775;28;20470;-64
2021/10/16 06:41:42;;;;;;;9.37;8.37;;;9.90;99.90;;;;;;6152701;28;20478;-64
2021/10/16 06:44:46;;;;;;;11.50;8.27;;;9.90;99.90;;;;;;6152570;28;20485;-64
2021/10/16 06:47:50;;;;;;;9.23;8.13;;;10.10;99.90;;;;;;6153182;28;20462;-66
2021/10/16 06:50:53;;;;;;;9.73;7.80;;;10.20;99.90;;;;;;6153630;28;20461;-64
2021/10/16 06:53:56;;;;;;;8.83;7.60;;;10.20;99.90;;;;;;6152567;28;20569;-64
2021/10/16 06:56:59;;;;;;;9.10;8.20;;;10.30;99.90;;;;;;6152889;28;20486;-64
2021/10/16 07:00:05;;;;;;;11.13;8.87;;;10.30;99.90;;;;;;6156600;28;20628;-65
2021/10/16 07:03:13;;;;;;;11.63;8.67;;;10.40;99.90;;;;;;6157730;28;20758;-63
2021/10/16 07:06:18;;;;;;;13.10;8.73;;;10.50;99.90;;;;;;6156616;28;20497;-64
2021/10/16 07:09:21;;;;;;;10.80;8.00;;;10.80;99.90;;;;;;6156508;28;20977;-64
2021/10/16 07:12:26;;;;;;;10.60;8.80;;;11.10;99.90;;;;;;6156410;28;20497;-64
2021/10/16 07:15:30;;;;;;;10.83;7.80;;;11.50;99.90;;;;;;6156446;28;20481;-65
2021/10/16 07:18:34;;;;;;;9.20;7.60;;;11.80;99.90;;;;;;6156010;28;20812;-64
2021/10/16 07:21:37;;;;;;;9.10;7.73;;;11.90;99.90;;;;;;6155898;28;20485;-63
2021/10/16 07:24:40;;;;;;;12.90;8.60;;;11.90;99.90;;;;;;6154956;28;20474;-63
2021/10/16 07:27:45;;;;;;;10.37;7.97;;;11.90;99.90;;;;;;6154687;28;20485;-65
2021/10/16 07:30:50;;;;;;;9.30;7.80;;;11.80;99.90;;;;;;6154802;28;20485;-65
2021/10/16 07:33:56;;;;;;;9.73;7.90;;;11.70;99.90;;;;;;6149336;28;20838;-64
2021/10/16 07:36:59;;;;;;;9.53;7.60;;;11.60;99.90;;;;;;6154087;28;20478;-64
2021/10/16 07:40:03;;;;;;;9.40;7.80;;;11.60;99.90;;;;;;6156179;28;20486;-63
2021/10/16 07:43:06;;;;;;;9.10;7.93;;;11.70;99.90;;;;;;6156146;28;20475;-63
2021/10/16 07:46:11;;;;;;;8.80;7.90;;;12.00;99.90;;;;;;6156294;28;20475;-63
2021/10/16 07:49:14;;;;;;;11.03;9.23;;;12.30;99.90;;;;;;6155534;28;20482;-63
2021/10/16 07:52:17;;;;;;;9.20;7.30;;;12.70;99.90;;;;;;6155822;28;20502;-63
2021/10/16 07:55:21;;;;;;;8.67;7.37;;;13.00;99.60;;;;;;6155608;28;20819;-64
2021/10/16 07:58:24;;;;;;;12.20;8.03;;;13.20;99.30;;;;;;6155540;28;20486;-64
2021/10/16 08:01:28;;;;;;;8.80;7.90;;;13.40;98.30;;;;;;6155736;28;20497;-65
2021/10/16 08:04:32;;;;;;;9.20;7.80;;;13.50;98.50;;;;;;6155276;28;20540;-64
2021/10/16 08:07:35;;;;;;;9.47;8.23;;;13.80;98.10;;;;;;6154959;28;20479;-64
2021/10/16 08:10:43;;;;;;;8.13;6.93;;;14.30;97.10;;;;;;6155157;28;20479;-64
2021/10/16 08:13:46;;;;;;;11.90;6.60;;;14.60;96.30;;;;;;6154949;28;20506;-67
2021/10/16 08:16:50;;;;;;;7.63;6.80;;;14.80;95.80;;;;;;6155222;28;20482;-66
2021/10/16 08:19:53;;;;;;;8.90;7.90;;;14.80;95.40;;;;;;6153189;28;20542;-65
2021/10/16 08:22:57;;;;;;;9.70;7.80;;;14.60;95.10;;;;;;6150324;28;20477;-64
2021/10/16 08:26:00;;;;;;;8.30;7.40;;;14.50;95.50;;;;;;6152588;28;20816;-65
2021/10/16 08:29:03;;;;;;;10.00;6.67;;;14.50;95.40;;;;;;6154982;28;20474;-64
2021/10/16 08:32:08;;;;;;;9.20;8.00;;;14.60;95.40;;;;;;6153223;28;20466;-65
2021/10/16 08:35:12;;;;;;;14.83;11.53;;;14.80;95.40;;;;;;6152376;28;20478;-65
2021/10/16 08:38:16;;;;;;;17.13;12.20;;;14.80;95.00;;;;;;6152353;28;20483;-66
2021/10/16 08:41:20;;;;;;;10.90;9.80;;;15.00;95.20;;;;;;6153254;28;20570;-65
2021/10/16 08:44:24;;;;;;;16.23;9.57;;;15.40;94.80;;;;;;6153296;28;20474;-64
2021/10/16 08:47:32;;;;;;;9.57;7.53;;;15.90;94.00;;;;;;6154061;28;20482;-64
2021/10/16 08:50:36;;;;;;;13.40;8.73;;;16.30;92.80;;;;;;6154416;28;20589;-64
2021/10/16 08:53:39;;;;;;;11.20;7.53;;;16.20;91.90;;;;;;6154523;28;20470;-65
2021/10/16 08:56:43;;;;;;;8.87;7.03;;;16.10;91.80;;;;;;6154116;28;20493;-64
2021/10/16 08:59:46;;;;;;;11.50;8.20;;;15.80;92.10;;;;;;6153889;28;20926;-64
2021/10/16 09:02:50;;;;;;;10.43;9.10;;;15.70;92.20;;;;;;6154275;28;20769;-64
2021/10/16 09:06:09;;;;;;;11.40;8.07;;;15.50;92.40;;;;;;6154535;28;20475;-64
2021/10/16 09:09:12;;;;;;;14.20;9.60;;;15.30;92.80;;;;;;6154336;28;20989;-64
2021/10/16 09:12:16;;;;;;;29.90;17.00;;;15.10;93.10;;;;;;6154417;28;20479;-64
2021/10/16 09:15:23;;;;;;;27.10;14.97;;;15.00;93.70;;;;;;6154031;28;20466;-64
2021/10/16 09:18:28;;;;;;;33.70;20.20;;;14.90;94.00;;;;;;6154137;28;20537;-63
2021/10/16 09:21:33;;;;;;;15.30;13.00;;;14.90;94.10;;;;;;6153611;28;20470;-63
2021/10/16 09:24:39;;;;;;;10.87;7.77;;;14.80;94.00;;;;;;6154003;28;20470;-63
2021/10/16 09:27:43;;;;;;;7.67;6.87;;;14.80;94.10;;;;;;6154592;28;20471;-63
2021/10/16 09:30:47;;;;;;;9.93;7.80;;;14.80;94.40;;;;;;6154227;28;20490;-64
2021/10/16 09:33:52;;;;;;;10.47;8.60;;;14.80;94.30;;;;;;6153911;28;20471;-64
2021/10/16 09:37:03;;;;;;;10.47;7.60;;;14.80;94.40;;;;;;6154122;28;20474;-64
2021/10/16 09:40:08;;;;;;;10.87;7.80;;;14.90;94.50;;;;;;6153915;28;20485;-64
2021/10/16 09:43:18;;;;;;;11.90;8.77;;;14.80;94.40;;;;;;6145524;28;20521;-64
2021/10/16 09:46:23;;;;;;;9.53;7.40;;;14.70;94.40;;;;;;6153514;28;20526;-64
2021/10/16 09:49:31;;;;;;;9.43;8.40;;;14.70;94.50;;;;;;6153785;28;20471;-63
2021/10/16 09:52:37;;;;;;;10.77;8.00;;;14.60;94.90;;;;;;6153991;28;20816;-63
2021/10/16 09:55:40;;;;;;;9.27;7.63;;;14.50;95.30;;;;;;6153661;28;20474;-64
2021/10/16 09:58:43;;;;;;;13.23;7.70;;;14.50;95.80;;;;;;6153329;28;20506;-63
2021/10/16 10:01:47;;;;;;;12.63;7.83;;;14.50;96.40;;;;;;6153700;28;20497;-64
2021/10/16 10:04:53;;;;;;;10.97;9.00;;;14.50;96.90;;;;;;6153035;28;20478;-64
2021/10/16 10:07:56;;;;;;;9.10;8.30;;;14.50;97.60;;;;;;6153221;28;20811;-64
2021/10/16 10:11:03;;;;;;;9.50;7.43;;;14.50;98.10;;;;;;6152841;28;20485;-63
2021/10/16 10:14:08;;;;;;;10.53;8.00;;;14.70;97.60;;;;;;6152993;28;20478;-63
2021/10/16 10:17:29;;;;;;;10.27;7.47;;;14.90;97.70;;;;;;6153402;28;20924;-64
2021/10/16 10:20:34;;;;;;;11.97;8.67;;;15.20;97.10;;;;;;6153279;28;20490;-64
2021/10/16 10:23:52;;;;;;;15.23;8.87;;;15.50;96.90;;;;;;6152575;28;20498;-64
2021/10/16 10:27:06;;;;;;;9.50;8.37;;;16.10;95.20;;;;;;6153360;28;20463;-63
2021/10/16 10:30:39;;;;;;;12.77;8.03;;;16.40;94.60;;;;;;6153641;28;20980;-63
2021/10/16 10:33:43;;;;;;;7.37;5.80;;;16.90;93.80;;;;;;6156306;28;20477;-64
2021/10/16 10:36:49;;;;;;;8.07;6.80;;;17.40;91.30;;;;;;6157178;28;20467;-65
2021/10/16 10:39:55;;;;;;;6.97;6.27;;;20.20;90.00;;;;;;6157736;28;20477;-64
2021/10/16 10:42:58;;;;;;;9.67;6.90;;;26.30;67.80;;;;;;6157425;28;20252;-64
2021/10/16 10:46:12;;;;;;;6.70;5.93;;;29.70;50.30;;;;;;6152729;28;20396;-65
2021/10/16 10:49:17;;;;;;;6.13;5.03;;;31.40;41.10;;;;;;6156901;28;20697;-65
2021/10/16 10:52:23;;;;;;;6.03;5.43;;;30.70;39.30;;;;;;6157239;28;20261;-66
2021/10/16 10:55:26;;;;;;;6.70;6.03;;;32.50;37.10;;;;;;6157211;28;20241;-65
2021/10/16 10:58:59;;;;;;;6.00;5.05;;;33.80;33.10;;;;;;6156849;28;20234;-66
2021/10/16 11:02:08;;;;;;;5.90;5.40;;;32.30;33.20;;;;;;6157031;28;20237;-66
2021/10/16 11:05:34;;;;;;;5.97;5.47;;;30.20;35.30;;;;;;6156537;28;20234;-66
2021/10/16 11:08:39;;;;;;;5.40;4.97;;;27.70;38.70;;;;;;6156807;28;20237;-66
2021/10/16 11:11:46;;;;;;;5.70;5.30;;;26.20;41.40;;;;;;6157031;28;20226;-66
2021/10/16 11:14:50;;;;;;;5.50;5.00;;;24.90;43.80;;;;;;6156566;28;20219;-65
2021/10/16 11:17:53;;;;;;;6.67;6.17;;;24.30;45.40;;;;;;6155901;28;20223;-65
2021/10/16 11:21:01;;;;;;;5.73;5.13;;;23.80;46.60;;;;;;6159509;28;20314;-64
2021/10/16 11:24:07;;;;;;;6.50;6.00;;;23.40;48.00;;;;;;6152671;28;20214;-63
2021/10/16 11:27:10;;;;;;;5.87;5.30;;;22.80;49.00;;;;;;6156967;28;20234;-63
2021/10/16 11:30:17;;;;;;;5.77;5.37;;;23.20;49.40;;;;;;6155846;28;20234;-65
2021/10/16 11:33:22;;;;;;;5.47;4.97;;;24.60;47.10;;;;;;6155775;28;20537;-65
2021/10/16 11:36:25;;;;;;;5.07;4.60;;;25.00;46.60;;;;;;6153098;28;20249;-65
2021/10/16 11:39:30;;;;;;;6.20;5.60;;;24.20;47.10;;;;;;6155759;28;20231;-65
2021/10/16 11:42:35;;;;;;;6.20;5.50;;;23.70;48.00;;;;;;6156331;28;20239;-65
2021/10/16 11:45:40;;;;;;;6.50;5.90;;;23.10;48.90;;;;;;6154929;28;20314;-66
2021/10/16 11:48:45;;;;;;;6.10;5.50;;;22.90;49.30;;;;;;6155068;28;20226;-66
2021/10/16 11:51:49;;;;;;;6.73;6.03;;;22.90;49.20;;;;;;6155179;28;20223;-65
2021/10/16 11:55:16;;;;;;;6.43;5.80;;;23.00;49.50;;;;;;6155658;28;20230;-64
2021/10/16 11:58:21;;;;;;;6.00;5.40;;;24.20;48.30;;;;;;6152121;28;20246;-63
2021/10/16 12:01:26;;;;;;;7.10;5.70;;;24.20;47.10;;;;;;6154782;28;20237;-64
2021/10/16 12:04:30;;;;;;;5.90;5.40;;;24.20;47.30;;;;;;6154928;28;20229;-64
2021/10/16 12:07:33;;;;;;;7.20;5.93;;;23.40;48.30;;;;;;6154605;28;20227;-67
2021/10/16 12:10:38;;;;;;;6.63;4.90;;;22.70;48.50;;;;;;6154422;28;20230;-67
2021/10/16 12:13:56;;;;;;;6.27;5.67;;;22.30;50.40;;;;;;6153025;28;20259;-66
2021/10/16 12:17:08;;;;;;;7.20;6.50;;;22.40;51.00;;;;;;6152621;28;20238;-66
2021/10/16 12:20:11;;;;;;;6.23;5.50;;;22.70;50.50;;;;;;6157458;28;20238;-64
2021/10/16 12:23:15;;;;;;;6.23;5.63;;;23.00;50.20;;;;;;6154463;28;20227;-64
2021/10/16 12:26:22;;;;;;;6.00;5.47;;;23.40;49.50;;;;;;6151856;28;20231;-65
2021/10/16 12:29:31;;;;;;;5.90;5.40;;;25.50;46.30;;;;;;6154368;28;20231;-65
2021/10/16 12:32:34;;;;;;;5.53;5.03;;;26.70;43.20;;;;;;6153884;28;20219;-64
2021/10/16 12:35:37;;;;;;;5.30;4.90;;;26.50;42.80;;;;;;6154165;28;20559;-65
2021/10/16 12:38:47;;;;;;;4.97;4.57;;;26.40;42.70;;;;;;6154652;28;20237;-65
2021/10/16 12:41:53;;;;;;;5.30;4.57;;;26.10;42.50;;;;;;6154850;28;20242;-65
2021/10/16 12:45:06;;;;;;;4.70;4.30;;;25.50;44.20;;;;;;6155874;28;20600;-65
2021/10/16 12:48:28;;;;;;;5.10;4.57;;;24.90;44.20;;;;;;6154844;28;20257;-66
2021/10/16 12:51:39;;;;;;;5.03;4.40;;;24.10;45.60;;;;;;6154320;28;20713;-62
2021/10/16 12:54:43;;;;;;;4.27;3.87;;;23.50;46.90;;;;;;6146056;28;20686;-64
2021/10/16 12:57:58;;;;;;;4.00;3.70;;;22.90;47.10;;;;;;6162401;28;20582;-64
2021/10/16 13:01:01;;;;;;;4.13;3.73;;;22.50;48.80;;;;;;6178614;28;20326;-65
2021/10/16 13:04:05;;;;;;;4.23;3.80;;;21.70;48.10;;;;;;6177684;28;20377;-64
2021/10/16 13:07:08;;;;;;;4.00;3.63;;;21.30;49.10;;;;;;6178149;28;20337;-63
2021/10/16 13:10:12;;;;;;;3.57;3.07;;;21.20;49.60;;;;;;6177894;28;20238;-65
2021/10/16 13:13:17;;;;;;;4.20;2.90;;;21.40;50.20;;;;;;6177792;28;20817;-65
2021/10/16 13:16:21;;;;;;;4.50;3.13;;;21.70;50.20;;;;;;6163328;28;20239;-64
2021/10/16 13:19:24;;;;;;;6.80;3.00;;;22.10;49.00;;;;;;6130302;28;20263;-64
2021/10/16 13:22:28;;;;;;;3.30;3.00;;;22.20;49.60;;;;;;6130001;28;20236;-66
2021/10/16 13:25:31;;;;;;;3.77;3.20;;;22.00;50.00;;;;;;6154353;28;20239;-65
2021/10/16 13:28:36;;;;;;;3.17;2.87;;;21.80;49.50;;;;;;6149337;28;20266;-65
2021/10/16 13:31:39;;;;;;;3.47;3.17;;;21.50;50.10;;;;;;6156182;28;20234;-65
2021/10/16 13:34:43;;;;;;;3.23;2.93;;;21.10;50.40;;;;;;6153777;28;20290;-65
2021/10/16 13:37:46;;;;;;;3.57;3.27;;;20.80;50.90;;;;;;6153385;28;20227;-68
2021/10/16 13:40:50;;;;;;;3.40;3.07;;;20.50;52.00;;;;;;6153941;28;20222;-68
2021/10/16 13:43:55;;;;;;;3.93;3.63;;;20.20;52.70;;;;;;6152651;28;20226;-69
2021/10/16 13:46:58;;;;;;;3.57;3.27;;;19.90;53.20;;;;;;6152575;28;20238;-68
2021/10/16 13:50:01;;;;;;;3.70;2.80;;;19.70;53.70;;;;;;6152966;28;20301;-67
2021/10/16 13:53:05;;;;;;;3.30;3.00;;;19.50;54.40;;;;;;6152731;28;20237;-69
2021/10/16 13:56:08;;;;;;;3.60;2.60;;;19.40;55.10;;;;;;6153006;28;20239;-69
2021/10/16 13:59:13;;;;;;;3.13;2.93;;;19.30;55.60;;;;;;6144053;28;20563;-69
2021/10/16 14:02:16;;;;;;;5.43;3.30;;;19.20;56.20;;;;;;6152901;28;20234;-66
2021/10/16 14:05:20;;;;;;;3.23;2.93;;;19.10;56.50;;;;;;6151036;28;20267;-65
2021/10/16 14:08:24;;;;;;;4.40;4.00;;;19.10;57.00;;;;;;6156581;28;20234;-66
2021/10/16 14:11:27;;;;;;;3.70;3.40;;;19.00;57.70;;;;;;6157402;28;20277;-67
2021/10/16 14:14:31;;;;;;;3.67;3.33;;;18.80;58.30;;;;;;6157659;28;20223;-65
2021/10/16 14:17:35;;;;;;;3.57;3.27;;;18.60;58.60;;;;;;6157634;28;20237;-66
2021/10/16 14:20:38;;;;;;;3.37;3.00;;;18.60;59.30;;;;;;6158461;28;20474;-68
2021/10/16 14:23:42;;;;;;;3.50;2.87;;;18.50;59.70;;;;;;6157430;28;20803;-68
2021/10/16 14:26:45;;;;;;;4.03;3.50;;;18.40;60.10;;;;;;6156554;28;20235;-67
2021/10/16 14:29:52;;;;;;;3.53;3.20;;;18.40;60.70;;;;;;6155972;28;20466;-68
2021/10/16 14:32:55;;;;;;;3.23;2.93;;;18.30;61.30;;;;;;6156172;28;20501;-67
2021/10/16 14:35:59;;;;;;;4.50;3.47;;;18.20;61.60;;;;;;6156168;28;20234;-68
2021/10/16 14:39:03;;;;;;;5.03;3.40;;;18.20;63.10;;;;;;6156088;28;20454;-67
2021/10/16 14:42:06;;;;;;;3.10;2.80;;;18.10;63.80;;;;;;6157340;28;20542;-68
2021/10/16 14:45:11;;;;;;;4.33;3.40;;;18.00;65.30;;;;;;6157824;28;20462;-67
2021/10/16 14:48:14;;;;;;;3.03;2.80;;;17.90;67.30;;;;;;6157413;28;20481;-68
2021/10/16 14:51:18;;;;;;;3.90;3.60;;;17.70;68.30;;;;;;6157082;28;20477;-67
2021/10/16 14:54:21;;;;;;;5.37;3.70;;;17.50;69.60;;;;;;6157131;28;20470;-67
2021/10/16 14:57:25;;;;;;;4.90;4.17;;;17.40;71.10;;;;;;6157119;28;20481;-67
2021/10/16 15:00:29;;;;;;;4.23;3.50;;;17.30;72.50;;;;;;6152488;28;20470;-67
2021/10/16 15:03:32;;;;;;;4.30;3.90;;;17.10;73.10;;;;;;6157413;28;20571;-66
2021/10/16 15:06:36;;;;;;;7.00;4.70;;;17.00;74.20;;;;;;6157443;28;20482;-67
2021/10/16 15:09:39;;;;;;;4.60;4.17;;;16.90;75.10;;;;;;6158067;28;20485;-64
2021/10/16 15:12:42;;;;;;;4.77;4.00;;;16.80;76.50;;;;;;6156783;28;20470;-66
2021/10/16 15:15:47;;;;;;;4.07;3.00;;;16.70;77.60;;;;;;6156693;28;20470;-66
2021/10/16 15:18:50;;;;;;;6.07;3.60;;;16.60;78.80;;;;;;6155267;28;20499;-67
2021/10/16 15:21:53;;;;;;;3.87;3.47;;;16.50;79.70;;;;;;6156239;28;20513;-67
2021/10/16 15:24:56;;;;;;;4.53;3.93;;;16.50;80.80;;;;;;6155836;28;20466;-67
2021/10/16 15:28:00;;;;;;;4.37;3.77;;;16.40;81.30;;;;;;6156271;28;20479;-67
2021/10/16 15:31:05;;;;;;;4.73;4.30;;;16.30;82.60;;;;;;6156432;28;20478;-66
2021/10/16 15:34:09;;;;;;;4.63;3.93;;;16.30;84.00;;;;;;6156209;28;20550;-66
2021/10/16 15:37:14;;;;;;;4.77;4.17;;;16.10;84.60;;;;;;6156217;28;20482;-67
2021/10/16 15:40:18;;;;;;;4.30;3.90;;;16.10;85.60;;;;;;6155883;28;20475;-65
2021/10/16 15:43:21;;;;;;;3.63;3.33;;;16.00;86.40;;;;;;6156362;28;20486;-66
2021/10/16 15:46:26;;;;;;;4.97;4.47;;;16.00;87.50;;;;;;6155553;28;20518;-65
2021/10/16 15:49:29;;;;;;;4.73;4.33;;;15.90;88.20;;;;;;6155517;28;20481;-65
2021/10/16 15:52:33;;;;;;;5.10;4.60;;;15.80;88.90;;;;;;6154578;28;20481;-65
2021/10/16 15:55:36;;;;;;;5.30;4.80;;;15.70;89.60;;;;;;6131424;28;20521;-64
2021/10/16 15:58:40;;;;;;;6.40;5.00;;;15.60;90.10;;;;;;6132039;28;20486;-66
2021/10/16 16:01:44;;;;;;;5.17;4.30;;;15.60;90.40;;;;;;6132334;28;20483;-65